Time;durP1;ratioP1;P1;durP2;ratioP2;P2;SDS_P1;SDS_P2;PMS_P1;PMS_P2;Temp;Humidity;BMP_temperature;BMP_pressure;BME280_temperature;BME280_humidity;BME280_pressure;Samples;Min_cycle;Max_cycle;Signal;HPM_P1;HPM_P2
2020/12/17 00:00:17;;;;;;;15.23;10.00;;;6.60;99.90;;;;;;5072721;28;20531;-69
2020/12/17 00:02:43;;;;;;;14.10;8.60;;;6.60;99.90;;;;;;5076109;28;20525;-69
2020/12/17 00:05:10;;;;;;;13.97;10.27;;;6.60;99.90;;;;;;5080890;28;20820;-69
2020/12/17 00:07:37;;;;;;;11.83;9.87;;;6.50;99.90;;;;;;5077200;28;20453;-69
2020/12/17 00:10:05;;;;;;;11.83;8.97;;;6.50;99.90;;;;;;5071867;28;20480;-69
2020/12/17 00:12:35;;;;;;;10.93;9.23;;;6.50;99.90;;;;;;5079692;28;20483;-69
2020/12/17 00:15:02;;;;;;;11.13;8.83;;;6.50;99.90;;;;;;5079025;28;20525;-69
2020/12/17 00:17:29;;;;;;;12.90;9.20;;;6.50;99.90;;;;;;5079089;28;20483;-69
2020/12/17 00:19:55;;;;;;;11.07;9.20;;;6.60;99.90;;;;;;5076926;28;20532;-69
2020/12/17 00:22:22;;;;;;;15.70;10.07;;;6.60;99.90;;;;;;5081467;28;20449;-69
2020/12/17 00:24:48;;;;;;;10.60;8.77;;;6.70;99.90;;;;;;5089992;28;20445;-69
2020/12/17 00:27:14;;;;;;;10.20;8.87;;;6.70;99.90;;;;;;5076985;28;20525;-69
2020/12/17 00:29:42;;;;;;;13.53;9.77;;;6.70;99.90;;;;;;5078776;28;20560;-70
2020/12/17 00:32:09;;;;;;;13.20;8.60;;;6.90;99.90;;;;;;5084832;28;20477;-69
2020/12/17 00:34:35;;;;;;;12.70;9.47;;;6.80;99.90;;;;;;5092306;28;20465;-69
2020/12/17 00:37:01;;;;;;;9.17;7.03;;;6.90;99.90;;;;;;5075711;28;20527;-69
2020/12/17 00:39:28;;;;;;;12.47;9.77;;;6.90;99.90;;;;;;5080762;28;20536;-69
2020/12/17 00:41:54;;;;;;;11.20;8.83;;;6.80;99.90;;;;;;5077976;28;20509;-69
2020/12/17 00:44:20;;;;;;;11.37;8.23;;;6.80;99.90;;;;;;5071917;28;20488;-68
2020/12/17 00:46:51;;;;;;;9.17;8.00;;;6.70;99.90;;;;;;5080495;28;20941;-69
2020/12/17 00:49:17;;;;;;;10.00;7.27;;;6.60;99.90;;;;;;5087199;28;20971;-70
2020/12/17 00:51:44;;;;;;;13.07;8.00;;;6.70;99.90;;;;;;5085112;28;20539;-69
2020/12/17 00:54:10;;;;;;;10.67;8.13;;;7.00;99.90;;;;;;5077734;28;21003;-70
2020/12/17 00:56:36;;;;;;;12.60;8.50;;;6.80;99.90;;;;;;5078838;28;20450;-69
2020/12/17 00:59:03;;;;;;;8.13;7.17;;;6.70;99.90;;;;;;5073509;28;20865;-69
2020/12/17 01:01:29;;;;;;;11.83;7.77;;;6.70;99.90;;;;;;5070190;28;21056;-69
2020/12/17 01:03:56;;;;;;;10.57;7.83;;;6.60;99.90;;;;;;5077451;28;20442;-69
2020/12/17 01:06:23;;;;;;;7.93;6.40;;;6.60;99.90;;;;;;5084675;28;21086;-69
2020/12/17 01:08:49;;;;;;;9.77;7.43;;;6.60;99.90;;;;;;5079194;28;20481;-69
2020/12/17 01:11:15;;;;;;;10.50;8.13;;;6.60;99.90;;;;;;5076256;28;20560;-69
2020/12/17 01:13:42;;;;;;;11.47;7.80;;;6.60;99.90;;;;;;5076651;28;20564;-69
2020/12/17 01:16:09;;;;;;;12.10;8.97;;;6.70;99.90;;;;;;5088750;28;20535;-69
2020/12/17 01:18:36;;;;;;;11.23;6.90;;;6.60;99.90;;;;;;5072908;28;20441;-69
2020/12/17 01:21:05;;;;;;;8.50;7.70;;;6.50;99.90;;;;;;5081174;28;20493;-69
2020/12/17 01:23:32;;;;;;;11.63;7.93;;;6.50;99.90;;;;;;5072856;28;20461;-69
2020/12/17 01:25:58;;;;;;;8.53;7.20;;;6.40;99.90;;;;;;5070955;28;20445;-69
2020/12/17 01:28:24;;;;;;;9.70;8.00;;;6.30;99.90;;;;;;5070451;28;20446;-69
2020/12/17 01:30:51;;;;;;;8.27;7.43;;;6.30;99.90;;;;;;5077432;28;20529;-69
2020/12/17 01:33:18;;;;;;;11.43;7.90;;;6.30;99.90;;;;;;5088066;28;20473;-70
2020/12/17 01:35:45;;;;;;;12.27;7.37;;;6.40;99.90;;;;;;5074072;28;20437;-69
2020/12/17 01:38:12;;;;;;;14.60;7.63;;;6.30;99.90;;;;;;5076491;28;20960;-71
2020/12/17 01:40:39;;;;;;;9.70;6.77;;;6.20;99.90;;;;;;5071407;28;20547;-69
2020/12/17 01:43:05;;;;;;;13.13;7.90;;;6.10;99.90;;;;;;5077164;28;20537;-69
2020/12/17 01:45:31;;;;;;;13.43;8.40;;;6.10;99.90;;;;;;5072703;28;20529;-70
2020/12/17 01:47:59;;;;;;;9.07;7.43;;;6.20;99.90;;;;;;5080044;28;20525;-69
2020/12/17 01:50:25;;;;;;;9.23;7.27;;;6.10;99.90;;;;;;5077861;28;20459;-69
2020/12/17 01:52:53;;;;;;;11.87;6.87;;;6.00;99.90;;;;;;5078898;28;20575;-69
2020/12/17 01:55:21;;;;;;;9.93;7.93;;;6.00;99.90;;;;;;5081977;28;20444;-68
2020/12/17 01:57:48;;;;;;;8.27;6.00;;;6.00;99.90;;;;;;5081325;28;20442;-69
2020/12/17 02:00:19;;;;;;;7.30;6.40;;;6.00;99.90;;;;;;5072375;28;20547;-69
2020/12/17 02:02:47;;;;;;;8.70;7.40;;;6.00;99.90;;;;;;5075495;28;20450;-69
2020/12/17 02:05:14;;;;;;;11.40;7.63;;;6.20;99.90;;;;;;5077965;28;20449;-69
2020/12/17 02:07:43;;;;;;;7.83;6.50;;;6.20;99.90;;;;;;5085064;28;20463;-69
2020/12/17 02:10:11;;;;;;;7.67;6.80;;;6.30;99.90;;;;;;5073288;28;20465;-70
2020/12/17 02:12:48;;;;;;;10.40;6.70;;;6.40;99.90;;;;;;5079088;28;20565;-69
2020/12/17 02:15:16;;;;;;;10.30;7.70;;;6.50;99.90;;;;;;5079167;28;21091;-69
2020/12/17 02:17:42;;;;;;;9.83;7.10;;;6.40;99.90;;;;;;5084981;28;20521;-69
2020/12/17 02:20:11;;;;;;;10.43;6.70;;;6.20;99.90;;;;;;5075590;28;20454;-69
2020/12/17 02:22:38;;;;;;;8.00;6.73;;;6.00;99.90;;;;;;5083027;28;20892;-69
2020/12/17 02:25:07;;;;;;;7.83;6.53;;;6.10;99.90;;;;;;5088406;28;20536;-69
2020/12/17 02:27:33;;;;;;;9.13;7.23;;;5.90;99.90;;;;;;5073309;28;20501;-69
2020/12/17 02:30:00;;;;;;;9.47;6.90;;;5.80;99.90;;;;;;5070263;28;20536;-69
2020/12/17 02:32:26;;;;;;;9.40;7.33;;;5.70;99.90;;;;;;5084021;28;20483;-69
2020/12/17 02:34:53;;;;;;;9.70;7.30;;;5.60;99.90;;;;;;5082696;28;20440;-69
2020/12/17 02:37:19;;;;;;;11.20;7.27;;;5.60;99.90;;;;;;5078520;28;20444;-69
2020/12/17 02:39:45;;;;;;;14.57;7.53;;;5.60;99.90;;;;;;5075833;28;20532;-69
2020/12/17 02:42:13;;;;;;;10.20;6.97;;;5.50;99.90;;;;;;5072370;28;20442;-69
2020/12/17 02:44:39;;;;;;;11.20;7.83;;;5.40;99.90;;;;;;5069258;28;21288;-69
2020/12/17 02:47:06;;;;;;;9.27;7.70;;;5.40;99.90;;;;;;5075190;28;20453;-69
2020/12/17 02:49:32;;;;;;;12.00;7.27;;;5.40;99.90;;;;;;5083188;28;20881;-69
2020/12/17 02:51:58;;;;;;;16.83;9.40;;;5.40;99.90;;;;;;5072545;28;20556;-69
2020/12/17 02:54:25;;;;;;;8.77;7.30;;;5.40;99.90;;;;;;5073815;28;20479;-69
2020/12/17 02:56:51;;;;;;;11.37;6.60;;;5.30;99.90;;;;;;5075047;28;21008;-69
2020/12/17 02:59:18;;;;;;;10.90;7.23;;;5.30;99.90;;;;;;5082776;28;20528;-69
2020/12/17 03:01:45;;;;;;;7.83;7.03;;;5.40;99.90;;;;;;5072206;28;20479;-69
2020/12/17 03:04:11;;;;;;;7.07;5.93;;;5.20;99.90;;;;;;5075961;28;20449;-69
2020/12/17 03:06:38;;;;;;;10.80;8.30;;;5.20;99.90;;;;;;5074474;28;20544;-69
2020/12/17 03:09:06;;;;;;;11.00;7.53;;;5.40;99.90;;;;;;5080151;28;20537;-69
2020/12/17 03:11:32;;;;;;;9.00;8.10;;;5.50;99.90;;;;;;5073740;28;20991;-69
2020/12/17 03:13:59;;;;;;;11.03;8.03;;;5.30;99.90;;;;;;5071672;28;20571;-69
2020/12/17 03:16:26;;;;;;;12.67;7.30;;;5.30;99.90;;;;;;5086753;28;20981;-69
2020/12/17 03:18:55;;;;;;;8.47;7.00;;;5.30;99.90;;;;;;5076981;28;20848;-69
2020/12/17 03:21:22;;;;;;;8.67;7.00;;;5.30;99.90;;;;;;5080093;28;20510;-69
2020/12/17 03:23:48;;;;;;;9.23;7.53;;;5.20;99.90;;;;;;5067596;28;20537;-69
2020/12/17 03:26:15;;;;;;;7.20;6.03;;;5.20;99.90;;;;;;5069576;28;20445;-69
2020/12/17 03:28:41;;;;;;;8.03;6.70;;;5.10;99.90;;;;;;5072624;28;20490;-69
2020/12/17 03:31:07;;;;;;;8.10;6.87;;;5.20;99.90;;;;;;5076285;28;20539;-69
2020/12/17 03:33:35;;;;;;;9.20;7.20;;;5.20;99.90;;;;;;5083718;28;20508;-69
2020/12/17 03:36:01;;;;;;;9.37;7.70;;;5.20;99.90;;;;;;5080853;28;20524;-69
2020/12/17 03:38:27;;;;;;;11.93;6.93;;;5.20;99.90;;;;;;5074915;28;20446;-69
2020/12/17 03:40:54;;;;;;;7.40;6.27;;;5.30;99.90;;;;;;5077858;28;20587;-69
2020/12/17 03:43:20;;;;;;;8.60;7.70;;;5.30;99.90;;;;;;5085219;28;20478;-69
2020/12/17 03:45:47;;;;;;;9.83;7.43;;;5.30;99.90;;;;;;5074979;28;20533;-69
2020/12/17 03:48:13;;;;;;;12.57;7.27;;;5.20;99.90;;;;;;5079995;28;20442;-69
2020/12/17 03:50:40;;;;;;;8.87;6.90;;;5.10;99.90;;;;;;5082411;28;20707;-70
2020/12/17 03:53:06;;;;;;;8.83;7.43;;;5.10;99.90;;;;;;5077139;28;20568;-69
2020/12/17 03:55:33;;;;;;;10.03;7.73;;;5.10;99.90;;;;;;5074860;28;20560;-71
2020/12/17 03:57:59;;;;;;;9.50;7.10;;;5.10;99.90;;;;;;5082072;28;20457;-70
2020/12/17 04:00:26;;;;;;;10.63;7.40;;;5.20;99.90;;;;;;5083335;28;20548;-70
2020/12/17 04:02:52;;;;;;;9.47;7.17;;;5.30;99.90;;;;;;5077011;28;20524;-69
2020/12/17 04:05:19;;;;;;;13.10;7.47;;;5.20;99.90;;;;;;5077130;28;20595;-70
2020/12/17 04:07:46;;;;;;;7.07;6.30;;;5.10;99.90;;;;;;5087046;28;20454;-70
2020/12/17 04:10:12;;;;;;;8.60;7.23;;;5.10;99.90;;;;;;5085882;28;20488;-69
2020/12/17 04:12:38;;;;;;;8.70;6.73;;;5.20;99.90;;;;;;5075570;28;20493;-70
2020/12/17 04:15:05;;;;;;;10.93;7.40;;;5.20;99.90;;;;;;5077605;28;20541;-69
2020/12/17 04:17:31;;;;;;;8.50;6.70;;;5.20;99.90;;;;;;5071070;28;21080;-70
2020/12/17 04:19:58;;;;;;;9.20;7.40;;;5.30;99.90;;;;;;5077145;28;20473;-70
2020/12/17 04:22:24;;;;;;;9.90;7.63;;;5.30;99.90;;;;;;5082633;28;20540;-69
2020/12/17 04:24:51;;;;;;;13.07;8.33;;;5.40;99.90;;;;;;5090411;28;20906;-69
2020/12/17 04:27:18;;;;;;;9.50;7.30;;;5.50;99.90;;;;;;5079256;28;20538;-70
2020/12/17 04:29:44;;;;;;;10.90;9.10;;;5.50;99.90;;;;;;5071342;28;20535;-69
2020/12/17 04:32:11;;;;;;;11.70;7.80;;;5.50;99.90;;;;;;5073690;28;20455;-69
2020/12/17 04:34:37;;;;;;;8.93;7.80;;;5.50;99.90;;;;;;5073444;28;20477;-69
2020/12/17 04:37:04;;;;;;;9.53;6.87;;;5.50;99.90;;;;;;5075095;28;20539;-69
2020/12/17 04:39:31;;;;;;;9.23;8.07;;;5.50;99.90;;;;;;5075459;28;20452;-69
2020/12/17 04:41:58;;;;;;;7.70;7.00;;;5.40;99.90;;;;;;5079479;28;20473;-69
2020/12/17 04:44:27;;;;;;;8.90;7.77;;;5.40;99.90;;;;;;5077124;28;20454;-70
2020/12/17 04:46:56;;;;;;;10.03;7.37;;;;;;;;;;5082866;28;20446;-72
2020/12/17 04:49:25;;;;;;;9.20;7.00;;;;;;;;;;5080140;28;20863;-70
2020/12/17 04:51:55;;;;;;;18.67;13.40;;;;;;;;;;5079212;28;20495;-71
2020/12/17 04:54:23;;;;;;;12.37;9.40;;;;;;;;;;5075941;28;20481;-71
2020/12/17 04:56:58;;;;;;;11.37;8.40;;;5.30;99.90;;;;;;5076769;28;20438;-69
2020/12/17 04:59:36;;;;;;;11.53;7.80;;;5.60;99.90;;;;;;5076246;28;20463;-69
2020/12/17 05:02:06;;;;;;;12.07;8.10;;;5.40;99.90;;;;;;5074418;28;20528;-69
2020/12/17 05:04:36;;;;;;;9.43;8.13;;;5.50;99.90;;;;;;5078849;28;20465;-69
2020/12/17 05:07:05;;;;;;;10.87;8.93;;;5.50;99.90;;;;;;5075780;28;20881;-69
2020/12/17 05:09:31;;;;;;;12.00;8.93;;;5.50;99.90;;;;;;5080699;28;20858;-72
2020/12/17 05:11:59;;;;;;;11.00;8.33;;;5.40;99.90;;;;;;5076255;28;20461;-71
2020/12/17 05:14:26;;;;;;;11.47;8.10;;;5.40;99.90;;;;;;5075147;28;20852;-72
2020/12/17 05:16:53;;;;;;;10.23;7.90;;;5.30;99.90;;;;;;5081043;28;20475;-73
2020/12/17 05:19:19;;;;;;;10.13;8.40;;;5.30;99.90;;;;;;5079391;28;20566;-73
2020/12/17 05:21:46;;;;;;;9.23;7.33;;;5.30;99.90;;;;;;5078647;28;20453;-73
2020/12/17 05:24:13;;;;;;;9.33;7.67;;;5.40;99.90;;;;;;5087196;28;20452;-73
2020/12/17 05:26:40;;;;;;;11.40;8.47;;;5.50;99.90;;;;;;5090580;28;20533;-74
2020/12/17 05:29:07;;;;;;;11.03;7.80;;;5.40;99.90;;;;;;5091047;28;20577;-74
2020/12/17 05:31:34;;;;;;;12.33;8.53;;;5.40;99.90;;;;;;5082912;28;21090;-73
2020/12/17 05:34:03;;;;;;;14.27;9.13;;;5.40;99.90;;;;;;5089396;28;20571;-72
2020/12/17 05:36:31;;;;;;;12.03;8.90;;;5.40;99.90;;;;;;5081322;28;20457;-72
2020/12/17 05:39:14;;;;;;;10.13;8.30;;;5.30;99.90;;;;;;5082715;28;20436;-72
2020/12/17 05:41:41;;;;;;;12.13;9.63;;;5.30;99.90;;;;;;5085405;28;20535;-72
2020/12/17 05:44:13;;;;;;;12.27;9.17;;;5.30;99.90;;;;;;5085236;28;20484;-73
2020/12/17 05:46:41;;;;;;;11.23;8.83;;;5.30;99.90;;;;;;5076998;28;20725;-73
2020/12/17 05:49:21;;;;;;;9.83;8.50;;;5.30;99.90;;;;;;5085831;28;20486;-73
2020/12/17 05:51:48;;;;;;;12.60;8.90;;;5.30;99.90;;;;;;5085420;28;20536;-72
2020/12/17 05:54:22;;;;;;;9.40;8.40;;;5.30;99.90;;;;;;5075103;28;20575;-72
2020/12/17 05:57:04;;;;;;;9.67;7.90;;;5.20;99.90;;;;;;5083432;28;21058;-72
2020/12/17 05:59:31;;;;;;;12.97;8.60;;;5.40;99.90;;;;;;5084194;28;20910;-73
2020/12/17 06:01:57;;;;;;;16.03;8.83;;;5.40;99.90;;;;;;5073979;28;20467;-72
2020/12/17 06:04:24;;;;;;;9.20;8.00;;;5.30;99.90;;;;;;5078016;28;20521;-73
2020/12/17 06:07:00;;;;;;;12.37;8.40;;;5.20;99.90;;;;;;5086942;28;20861;-72
2020/12/17 06:09:35;;;;;;;11.67;7.40;;;5.20;99.90;;;;;;5089603;28;20518;-73
2020/12/17 06:12:02;;;;;;;17.00;9.37;;;5.10;99.90;;;;;;5076335;28;20475;-73
2020/12/17 06:14:33;;;;;;;8.40;7.07;;;5.20;99.90;;;;;;5083672;28;20571;-73
2020/12/17 06:17:05;;;;;;;11.30;8.40;;;5.10;99.90;;;;;;5088895;28;20452;-73
2020/12/17 06:19:36;;;;;;;10.37;8.70;;;5.10;99.90;;;;;;5076984;28;20439;-73
2020/12/17 06:22:09;;;;;;;10.10;7.90;;;5.20;99.90;;;;;;5078688;28;20535;-73
2020/12/17 06:24:37;;;;;;;8.83;7.40;;;5.10;99.90;;;;;;5078296;28;20459;-73
2020/12/17 06:27:08;;;;;;;9.37;7.80;;;5.10;99.90;;;;;;5077019;28;20954;-73
2020/12/17 06:29:48;;;;;;;9.87;7.57;;;5.00;99.90;;;;;;5078669;28;20444;-73
2020/12/17 06:32:17;;;;;;;12.40;9.13;;;5.20;99.90;;;;;;5083864;28;20535;-73
2020/12/17 06:34:49;;;;;;;9.00;7.53;;;5.20;99.90;;;;;;5089786;28;20480;-72
2020/12/17 06:37:17;;;;;;;10.70;7.57;;;5.00;99.90;;;;;;5079856;28;20451;-73
2020/12/17 06:39:48;;;;;;;9.47;7.93;;;4.90;99.90;;;;;;5079734;28;21025;-72
2020/12/17 06:42:32;;;;;;;10.80;7.00;;;4.90;99.90;;;;;;5090305;28;20797;-73
2020/12/17 06:45:00;;;;;;;12.90;8.77;;;4.80;99.90;;;;;;5078662;28;20523;-73
2020/12/17 06:47:28;;;;;;;11.17;8.47;;;4.80;99.90;;;;;;5081537;28;20978;-73
2020/12/17 06:49:55;;;;;;;11.53;8.57;;;4.80;99.90;;;;;;5085836;28;20440;-73
2020/12/17 06:52:21;;;;;;;11.53;7.73;;;4.90;99.90;;;;;;5082271;28;20450;-73
2020/12/17 06:54:48;;;;;;;9.10;7.17;;;4.90;99.90;;;;;;5078507;28;20577;-72
2020/12/17 06:57:16;;;;;;;11.77;7.63;;;;;;;;;;5083734;28;21069;-73
2020/12/17 06:59:44;;;;;;;11.43;8.63;;;4.80;99.90;;;;;;5083360;28;20448;-72
2020/12/17 07:02:17;;;;;;;11.13;7.87;;;4.60;99.90;;;;;;5073021;28;20452;-72
2020/12/17 07:04:45;;;;;;;11.57;8.17;;;4.60;99.90;;;;;;5079089;28;20455;-73
2020/12/17 07:07:13;;;;;;;12.60;7.43;;;4.60;99.90;;;;;;5085349;28;20578;-73
2020/12/17 07:09:40;;;;;;;10.73;7.67;;;4.70;99.90;;;;;;5086102;28;20789;-72
2020/12/17 07:12:07;;;;;;;9.33;7.20;;;4.70;99.90;;;;;;5074028;28;20483;-73
2020/12/17 07:14:34;;;;;;;12.80;8.30;;;4.70;99.90;;;;;;5081281;28;20488;-73
2020/12/17 07:17:02;;;;;;;12.23;7.13;;;4.80;99.90;;;;;;5086457;28;20441;-73
2020/12/17 07:19:30;;;;;;;8.43;7.43;;;4.80;99.90;;;;;;5075559;28;20470;-73
2020/12/17 07:22:02;;;;;;;6.93;6.20;;;4.90;99.90;;;;;;5076670;28;20452;-73
2020/12/17 07:24:34;;;;;;;8.90;7.03;;;5.00;99.90;;;;;;5086462;28;20440;-73
2020/12/17 07:27:06;;;;;;;8.30;6.17;;;5.00;99.90;;;;;;5075774;28;20522;-73
2020/12/17 07:29:50;;;;;;;7.30;5.90;;;5.00;99.90;;;;;;5076343;28;20447;-73
2020/12/17 07:32:33;;;;;;;9.27;5.83;;;5.00;99.90;;;;;;5084538;28;20436;-73
2020/12/17 07:35:15;;;;;;;7.73;5.97;;;5.00;99.90;;;;;;5091612;28;20921;-73
2020/12/17 07:37:43;;;;;;;6.83;4.77;;;5.20;99.90;;;;;;5079326;28;20448;-73
2020/12/17 07:40:21;;;;;;;6.77;6.07;;;5.30;99.90;;;;;;5083768;28;20441;-73
2020/12/17 07:43:02;;;;;;;7.63;5.87;;;5.40;99.90;;;;;;5092295;28;20511;-73
2020/12/17 07:45:49;;;;;;;6.93;5.13;;;5.50;99.90;;;;;;5080070;28;20455;-73
2020/12/17 07:48:36;;;;;;;7.07;5.20;;;5.50;99.90;;;;;;5083215;28;20442;-73
2020/12/17 07:51:05;;;;;;;7.77;5.17;;;6.00;99.90;;;;;;5081827;28;20465;-73
2020/12/17 07:53:32;;;;;;;6.90;4.90;;;6.50;99.90;;;;;;5067731;28;20621;-73
2020/12/17 07:55:59;;;;;;;5.63;4.50;;;6.70;99.90;;;;;;5070648;28;20450;-72
2020/12/17 07:58:25;;;;;;;5.73;4.00;;;6.30;99.90;;;;;;5085005;28;20448;-72
2020/12/17 08:00:53;;;;;;;4.70;3.53;;;6.20;99.90;;;;;;5080536;28;20524;-73
2020/12/17 08:03:20;;;;;;;4.00;3.20;;;6.20;99.90;;;;;;5082405;28;20540;-70
2020/12/17 08:05:46;;;;;;;4.70;3.67;;;6.20;99.90;;;;;;5082846;28;20524;-73
2020/12/17 08:08:17;;;;;;;5.97;4.00;;;6.50;99.90;;;;;;5092467;28;20451;-72
2020/12/17 08:10:44;;;;;;;5.20;4.17;;;6.50;99.90;;;;;;5081982;28;20556;-72
2020/12/17 08:13:10;;;;;;;6.07;3.83;;;6.50;99.90;;;;;;5085488;28;21071;-73
2020/12/17 08:15:38;;;;;;;3.43;3.13;;;6.60;99.90;;;;;;5086665;28;20444;-73
2020/12/17 08:18:05;;;;;;;4.67;3.40;;;6.70;85.20;;;;;;5087186;28;20446;-73
2020/12/17 08:20:32;;;;;;;4.43;3.23;;;6.70;71.30;;;;;;5077564;28;20445;-73
2020/12/17 08:22:59;;;;;;;3.50;3.10;;;6.60;95.60;;;;;;5081407;28;20448;-73
2020/12/17 08:25:29;;;;;;;5.37;3.30;;;6.60;99.90;;;;;;5089737;28;20437;-72
2020/12/17 08:27:55;;;;;;;3.83;3.43;;;6.60;99.90;;;;;;5077036;28;20521;-72
2020/12/17 08:30:22;;;;;;;3.50;3.20;;;6.60;99.90;;;;;;5082393;28;20474;-73
2020/12/17 08:32:50;;;;;;;4.20;3.77;;;6.60;99.90;;;;;;5090182;28;20852;-73
2020/12/17 08:35:22;;;;;;;4.37;3.97;;;6.60;99.90;;;;;;5079538;28;20450;-73
2020/12/17 08:37:52;;;;;;;6.07;3.70;;;6.80;99.90;;;;;;5070033;28;20445;-74
2020/12/17 08:40:24;;;;;;;4.13;3.43;;;6.80;99.90;;;;;;5088170;28;20535;-74
2020/12/17 08:42:58;;;;;;;4.23;3.13;;;6.90;69.80;;;;;;5097331;28;20475;-72
2020/12/17 08:45:26;;;;;;;3.43;3.00;;;6.90;93.80;;;;;;5081436;28;20443;-74
2020/12/17 08:47:58;;;;;;;4.10;3.27;;;6.90;93.00;;;;;;5081495;28;20438;-73
2020/12/17 08:50:26;;;;;;;5.10;3.10;;;7.00;29.70;;;;;;5079354;28;20448;-73
2020/12/17 08:52:53;;;;;;;5.30;3.10;;;7.10;24.40;;;;;;5082822;28;20445;-73
2020/12/17 08:55:19;;;;;;;4.10;3.30;;;7.10;61.00;;;;;;5083914;28;20543;-73
2020/12/17 08:57:47;;;;;;;5.70;3.83;;;7.10;52.80;;;;;;5082747;28;20964;-71
2020/12/17 09:00:16;;;;;;;4.30;3.20;;;7.20;1.00;;;;;;5084278;28;20453;-73
2020/12/17 09:02:43;;;;;;;4.27;3.87;;;7.20;41.10;;;;;;5075354;28;21005;-74
2020/12/17 09:05:12;;;;;;;4.73;3.87;;;7.10;7.80;;;;;;5083717;28;20448;-74
2020/12/17 09:07:46;;;;;;;5.13;3.70;;;7.00;98.40;;;;;;5085581;28;20445;-72
2020/12/17 09:10:14;;;;;;;6.40;4.30;;;7.00;99.90;;;;;;5084514;28;20433;-73
2020/12/17 09:12:40;;;;;;;8.00;3.47;;;7.00;99.90;;;;;;5038881;28;21061;-73
2020/12/17 09:15:07;;;;;;;3.53;3.23;;;7.10;99.90;;;;;;5045510;28;21336;-73
2020/12/17 09:17:35;;;;;;;4.50;3.63;;;7.20;95.90;;;;;;5046925;28;20538;-73
2020/12/17 09:20:14;;;;;;;13.03;4.30;;;7.20;93.00;;;;;;5035307;28;20864;-73
2020/12/17 09:22:41;;;;;;;5.57;3.27;;;7.20;48.70;;;;;;5043130;28;20454;-73
2020/12/17 09:25:07;;;;;;;3.83;3.23;;;7.20;23.10;;;;;;5048148;28;20446;-73
2020/12/17 09:27:35;;;;;;;3.97;3.07;;;7.20;12.10;;;;;;5036328;28;20474;-73
2020/12/17 09:30:07;;;;;;;6.00;3.33;;;7.20;1.00;;;;;;5047748;28;20481;-73
2020/12/17 09:32:35;;;;;;;5.63;3.87;;;7.30;1.00;;;;;;5058524;28;20462;-73
2020/12/17 09:35:10;;;;;;;5.17;3.40;;;7.30;1.00;;;;;;5061758;28;20470;-73
2020/12/17 09:37:37;;;;;;;4.00;3.30;;;7.40;1.00;;;;;;5042788;28;20470;-73
2020/12/17 09:40:06;;;;;;;4.70;3.83;;;7.40;1.00;;;;;;5040070;28;20882;-72
2020/12/17 09:42:33;;;;;;;4.93;4.43;;;7.30;8.20;;;;;;5048909;28;20949;-73
2020/12/17 09:45:11;;;;;;;4.07;3.67;;;7.30;1.00;;;;;;5038043;28;20578;-73
2020/12/17 09:47:38;;;;;;;5.53;3.83;;;7.30;1.00;;;;;;5039447;28;20851;-73
2020/12/17 09:50:10;;;;;;;4.50;3.90;;;7.30;35.70;;;;;;5043593;28;20439;-73
2020/12/17 09:52:37;;;;;;;6.50;3.70;;;7.30;15.30;;;;;;5050109;28;20511;-73
2020/12/17 09:55:04;;;;;;;4.60;3.67;;;7.40;1.00;;;;;;5038792;28;20570;-72
2020/12/17 09:57:39;;;;;;;5.40;4.10;;;7.40;1.00;;;;;;5039788;28;20534;-73
2020/12/17 10:00:08;;;;;;;4.93;4.00;;;7.50;1.00;;;;;;5042490;28;20470;-73
2020/12/17 10:02:34;;;;;;;5.23;3.43;;;7.60;1.00;;;;;;5034237;28;20533;-73
2020/12/17 10:05:02;;;;;;;5.13;3.53;;;7.70;1.00;;;;;;5043003;28;20486;-73
2020/12/17 10:07:28;;;;;;;4.33;3.13;;;7.80;1.00;;;;;;5045342;28;20462;-74
2020/12/17 10:09:54;;;;;;;4.83;3.23;;;7.90;1.00;;;;;;5031334;28;20791;-74
2020/12/17 10:12:21;;;;;;;9.10;5.83;;;8.10;1.00;;;;;;5070274;28;20514;-73
2020/12/17 10:14:47;;;;;;;7.93;5.37;;;8.20;1.00;;;;;;5068644;28;20476;-74
2020/12/17 10:17:14;;;;;;;3.90;3.20;;;8.50;1.00;;;;;;5088596;28;20527;-73
2020/12/17 10:19:40;;;;;;;5.30;4.10;;;8.60;1.00;;;;;;5075209;28;20971;-74
2020/12/17 10:22:07;;;;;;;7.67;3.43;;;8.60;1.00;;;;;;5077105;28;20556;-74
2020/12/17 10:24:34;;;;;;;5.30;4.17;;;8.60;1.00;;;;;;5077020;28;20459;-73
2020/12/17 10:27:02;;;;;;;5.63;3.40;;;8.80;1.00;;;;;;5076553;28;20469;-73
2020/12/17 10:29:29;;;;;;;4.43;3.43;;;8.90;1.00;;;;;;5078809;28;20490;-73
2020/12/17 10:31:56;;;;;;;10.53;3.63;;;9.00;99.90;;;;;;5080946;28;20462;-73
2020/12/17 10:34:23;;;;;;;4.03;3.53;;;9.10;99.90;;;;;;5088925;28;21016;-73
2020/12/17 10:36:49;;;;;;;4.20;3.30;;;9.20;99.90;;;;;;5078954;28;20484;-72
2020/12/17 10:39:16;;;;;;;6.80;3.67;;;9.10;99.90;;;;;;5082603;28;20526;-73
2020/12/17 10:41:43;;;;;;;6.93;3.37;;;9.10;99.90;;;;;;5083216;28;21494;-73
2020/12/17 10:44:10;;;;;;;5.90;3.23;;;9.10;99.90;;;;;;5083609;28;20441;-73
2020/12/17 10:46:37;;;;;;;3.73;3.37;;;9.20;99.90;;;;;;5074869;28;20441;-73
2020/12/17 10:49:04;;;;;;;12.70;3.87;;;9.20;99.90;;;;;;5084148;28;20967;-71
2020/12/17 10:51:31;;;;;;;5.77;3.67;;;9.30;99.90;;;;;;5085954;28;20445;-73
2020/12/17 10:53:58;;;;;;;7.23;3.87;;;9.30;1.00;;;;;;5073499;28;20568;-74
2020/12/17 10:56:25;;;;;;;4.80;3.00;;;9.40;99.90;;;;;;5077734;28;20469;-73
2020/12/17 10:58:52;;;;;;;5.70;3.27;;;9.60;99.90;;;;;;5083955;28;20490;-72
2020/12/17 11:01:23;;;;;;;5.90;3.87;;;9.80;99.90;;;;;;5076218;28;20452;-73
2020/12/17 11:03:51;;;;;;;4.43;3.33;;;10.00;1.00;;;;;;5066406;28;20908;-73
2020/12/17 11:06:18;;;;;;;4.77;2.90;;;10.30;99.90;;;;;;5083321;28;20955;-73
2020/12/17 11:08:45;;;;;;;9.60;3.03;;;10.50;78.50;;;;;;5092776;28;20440;-72
2020/12/17 11:11:12;;;;;;;3.40;3.10;;;10.60;1.00;;;;;;5082039;28;20472;-73
2020/12/17 11:13:40;;;;;;;4.50;3.20;;;10.60;1.00;;;;;;5083275;28;20506;-73
2020/12/17 11:16:06;;;;;;;4.03;2.60;;;10.60;1.00;;;;;;5089369;28;20520;-71
2020/12/17 11:18:33;;;;;;;5.83;3.33;;;10.60;99.90;;;;;;5083473;28;20448;-73
2020/12/17 11:20:59;;;;;;;2.97;2.30;;;10.60;99.90;;;;;;5082051;28;20520;-73
2020/12/17 11:23:25;;;;;;;3.40;3.17;;;10.60;99.90;;;;;;5087008;28;20447;-72
2020/12/17 11:25:52;;;;;;;3.80;2.93;;;11.00;1.00;;;;;;5087779;28;20524;-72
2020/12/17 11:28:19;;;;;;;3.23;2.93;;;10.80;1.00;;;;;;5077896;28;20520;-73
2020/12/17 11:30:46;;;;;;;4.10;2.30;;;10.80;1.00;;;;;;5085363;28;20440;-72
2020/12/17 11:33:12;;;;;;;4.23;3.30;;;10.90;99.90;;;;;;5089895;28;20485;-73
2020/12/17 11:35:39;;;;;;;3.33;2.57;;;10.80;99.90;;;;;;5090242;28;20539;-73
2020/12/17 11:38:05;;;;;;;4.30;2.97;;;10.60;1.00;;;;;;5079932;28;20448;-73
2020/12/17 11:40:32;;;;;;;7.10;3.40;;;10.60;1.00;;;;;;5087560;28;20502;-73
2020/12/17 11:42:58;;;;;;;5.53;3.43;;;10.60;1.00;;;;;;5092414;28;20515;-73
2020/12/17 11:45:25;;;;;;;3.23;2.93;;;10.70;1.00;;;;;;5080841;28;20764;-73
2020/12/17 11:47:53;;;;;;;5.10;3.70;;;10.80;99.90;;;;;;5081361;28;20444;-72
2020/12/17 11:50:20;;;;;;;3.77;2.47;;;10.80;99.90;;;;;;5089939;28;20519;-72
2020/12/17 11:52:47;;;;;;;3.20;2.43;;;11.10;1.00;;;;;;5082170;28;20532;-73
2020/12/17 11:55:13;;;;;;;5.60;3.83;;;11.40;99.90;;;;;;5082320;28;20572;-73
2020/12/17 11:57:40;;;;;;;6.83;3.23;;;11.30;1.00;;;;;;5081905;28;20925;-72
2020/12/17 12:00:08;;;;;;;3.00;2.63;;;11.30;1.00;;;;;;5085967;28;20441;-73
2020/12/17 12:02:35;;;;;;;3.13;2.50;;;11.50;1.00;;;;;;5070617;28;20449;-72
2020/12/17 12:05:03;;;;;;;6.67;3.27;;;11.40;1.00;;;;;;5072244;28;20454;-73
2020/12/17 12:07:30;;;;;;;6.03;3.33;;;11.70;1.00;;;;;;5084422;28;20459;-73
2020/12/17 12:09:56;;;;;;;3.50;2.77;;;11.50;99.90;;;;;;5088620;28;20529;-72
2020/12/17 12:12:22;;;;;;;3.23;2.77;;;11.10;99.90;;;;;;5079790;28;20685;-72
2020/12/17 12:14:49;;;;;;;6.13;4.10;;;11.10;1.00;;;;;;5088715;28;20505;-73
2020/12/17 12:17:15;;;;;;;4.10;2.53;;;11.00;1.00;;;;;;5091470;28;20502;-72
2020/12/17 12:19:42;;;;;;;8.00;4.30;;;11.00;1.00;;;;;;5078438;28;20443;-71
2020/12/17 12:22:09;;;;;;;7.37;3.40;;;11.00;99.90;;;;;;5082319;28;20543;-71
2020/12/17 12:24:35;;;;;;;7.80;3.87;;;10.90;99.90;;;;;;5090846;28;20517;-72
2020/12/17 12:27:01;;;;;;;6.40;3.33;;;11.00;99.90;;;;;;5080510;28;20448;-72
2020/12/17 12:29:28;;;;;;;6.87;3.47;;;11.00;99.90;;;;;;5082649;28;20527;-72
2020/12/17 12:31:55;;;;;;;9.07;3.70;;;11.00;1.00;;;;;;5084685;28;20524;-72
2020/12/17 12:34:22;;;;;;;6.27;3.30;;;11.20;1.00;;;;;;5084330;28;20564;-72
2020/12/17 12:36:49;;;;;;;8.70;3.70;;;11.10;99.90;;;;;;5077463;28;20461;-70
2020/12/17 12:39:17;;;;;;;5.20;3.37;;;11.20;99.90;;;;;;5086047;28;20528;-70
2020/12/17 12:41:46;;;;;;;5.50;3.37;;;11.20;1.00;;;;;;5087693;28;20803;-71
2020/12/17 12:44:12;;;;;;;6.00;3.33;;;11.30;1.00;;;;;;5085932;28;20460;-72
2020/12/17 12:46:39;;;;;;;4.87;3.60;;;11.40;1.00;;;;;;5080208;28;21212;-70
2020/12/17 12:49:06;;;;;;;4.63;2.77;;;11.20;84.50;;;;;;5087963;28;20517;-69
2020/12/17 12:51:32;;;;;;;8.50;4.60;;;11.10;1.00;;;;;;5089265;28;20497;-70
2020/12/17 12:53:58;;;;;;;5.20;4.10;;;11.00;1.00;;;;;;5077360;28;20926;-70
2020/12/17 12:56:26;;;;;;;8.03;4.10;;;10.80;1.00;;;;;;5082321;28;20450;-69
2020/12/17 12:58:53;;;;;;;9.70;4.17;;;10.80;1.00;;;;;;5088013;28;20433;-70